Time;durP1;ratioP1;P1;durP2;ratioP2;P2;SDS_P1;SDS_P2;PMS_P1;PMS_P2;Temp;Humidity;BMP_temperature;BMP_pressure;BME280_temperature;BME280_humidity;BME280_pressure;Samples;Min_cycle;Max_cycle;Signal;HPM_P1;HPM_P2
2023/10/27 00:00:43;;;;;;;10.20;7.20;;;;;;;20.58;71.31;98839.00;4898631;29;20060;-58
2023/10/27 00:03:10;;;;;;;8.13;6.75;;;;;;;20.57;71.26;98881.19;4898435;29;20061;-65
2023/10/27 00:05:38;;;;;;;9.00;7.38;;;;;;;20.58;71.32;98847.06;4898518;29;20059;-65
2023/10/27 00:08:05;;;;;;;9.43;7.55;;;;;;;20.57;71.12;98830.09;4898496;29;20045;-65
2023/10/27 00:10:36;;;;;;;9.07;7.00;;;;;;;20.57;71.14;98843.53;4881613;29;20138;-65
2023/10/27 00:13:03;;;;;;;9.90;7.53;;;;;;;20.57;71.09;98822.03;4898360;29;20052;-63
2023/10/27 00:15:31;;;;;;;9.52;7.72;;;;;;;20.57;71.05;98811.28;4897976;29;20064;-65
2023/10/27 00:17:58;;;;;;;8.88;6.82;;;;;;;20.57;71.11;98810.47;4898368;29;20048;-65
2023/10/27 00:20:26;;;;;;;9.23;7.25;;;;;;;20.57;71.05;98823.91;4898376;29;20427;-65
2023/10/27 00:22:53;;;;;;;9.60;7.63;;;;;;;20.56;71.01;98820.38;4898079;29;20053;-65
2023/10/27 00:25:20;;;;;;;8.88;7.30;;;;;;;20.56;71.03;98793.50;4898048;29;20064;-59
2023/10/27 00:27:48;;;;;;;9.85;7.65;;;;;;;20.56;70.89;98780.06;4898584;29;20063;-59
2023/10/27 00:30:16;;;;;;;8.52;7.32;;;;;;;20.57;71.11;98797.84;4897963;29;20055;-59
2023/10/27 00:32:44;;;;;;;7.72;6.35;;;;;;;20.56;70.83;98814.16;4898378;29;20049;-59
2023/10/27 00:35:11;;;;;;;8.60;7.35;;;;;;;20.56;70.85;98796.19;4898128;29;20044;-58
2023/10/27 00:37:41;;;;;;;10.80;7.68;;;;;;;20.56;70.91;98772.00;4896429;29;20052;-59
2023/10/27 00:40:09;;;;;;;8.40;7.05;;;;;;;20.56;70.91;98769.31;4881571;29;20053;-59
2023/10/27 00:42:36;;;;;;;8.75;7.53;;;;;;;20.55;70.68;98762.25;4880519;29;20059;-59
2023/10/27 00:45:04;;;;;;;9.23;7.03;;;;;;;20.55;70.78;98748.81;4896509;29;20076;-59
2023/10/27 00:47:33;;;;;;;7.50;6.22;;;;;;;20.55;70.58;98748.81;4881606;29;20056;-58
2023/10/27 00:50:01;;;;;;;8.68;6.70;;;;;;;20.55;70.68;98746.13;4898017;29;20411;-59
2023/10/27 00:52:29;;;;;;;8.82;7.13;;;;;;;20.57;70.68;98756.69;4897750;29;20044;-59
2023/10/27 00:54:57;;;;;;;9.07;7.18;;;;;;;20.55;70.53;98748.81;4897683;29;20044;-59
2023/10/27 00:57:25;;;;;;;8.68;6.85;;;;;;;20.55;70.45;98740.75;4897581;29;20491;-59
2023/10/27 00:59:52;;;;;;;7.68;6.60;;;;;;;20.56;70.77;98730.84;4897764;29;20055;-58
2023/10/27 01:02:21;;;;;;;8.73;6.85;;;;;;;20.56;70.34;98728.97;4897870;29;20048;-58
2023/10/27 01:04:49;;;;;;;7.35;6.55;;;;;;;20.56;70.34;98725.47;4897799;29;20060;-64
2023/10/27 01:07:17;;;;;;;7.40;6.30;;;;;;;20.56;70.24;98696.72;4897486;29;20513;-64
2023/10/27 01:09:45;;;;;;;8.70;6.63;;;;;;;20.55;70.16;98691.53;4897875;29;20052;-65
2023/10/27 01:12:13;;;;;;;8.43;7.10;;;;;;;20.55;70.31;98705.00;4881189;29;20064;-65
2023/10/27 01:14:40;;;;;;;8.75;7.05;;;;;;;20.56;70.14;98695.91;4897693;29;20459;-65
2023/10/27 01:17:07;;;;;;;8.77;6.60;;;;;;;20.56;70.07;98698.59;4897501;29;20376;-65
2023/10/27 01:19:36;;;;;;;7.95;6.50;;;;;;;20.56;69.99;98687.81;4880689;29;20065;-65
2023/10/27 01:22:03;;;;;;;6.63;5.93;;;;;;;20.56;70.03;98674.38;4896059;29;20067;-65
2023/10/27 01:24:31;;;;;;;8.80;6.95;;;;;;;20.56;69.85;98675.22;4880158;29;20063;-65
2023/10/27 01:26:59;;;;;;;8.70;6.85;;;;;;;20.56;70.01;98658.25;4897586;29;20056;-65
2023/10/27 01:29:28;;;;;;;8.98;6.72;;;;;;;20.56;69.88;98639.44;4896649;29;20056;-58
2023/10/27 01:31:56;;;;;;;7.25;6.22;;;;;;;20.55;69.86;98625.19;4886642;29;20068;-58
2023/10/27 01:34:23;;;;;;;7.80;6.60;;;;;;;20.57;69.73;98616.91;4897416;29;20491;-64
2023/10/27 01:36:51;;;;;;;9.43;6.18;;;;;;;20.56;69.74;98639.44;4897523;29;20079;-64
2023/10/27 01:39:18;;;;;;;7.57;6.75;;;;;;;20.56;69.71;98621.44;4897523;29;20045;-65
2023/10/27 01:41:46;;;;;;;9.27;6.97;;;;;;;20.56;69.70;98610.69;4898347;29;20052;-65
2023/10/27 01:44:13;;;;;;;7.70;6.05;;;;;;;20.55;69.61;98611.72;4899170;29;20055;-64
2023/10/27 01:46:41;;;;;;;8.25;6.63;;;;;;;20.55;69.47;98598.28;4900970;29;20072;-65
2023/10/27 01:49:08;;;;;;;7.97;6.53;;;;;;;20.56;69.37;98585.69;4900976;29;20056;-65
2023/10/27 01:51:35;;;;;;;7.90;5.35;;;;;;;20.56;69.38;98583.00;4899115;29;20056;-65
2023/10/27 01:54:03;;;;;;;7.07;5.85;;;;;;;20.55;69.48;98575.97;4900746;29;20045;-59
2023/10/27 01:56:33;;;;;;;7.45;6.25;;;;;;;20.56;69.54;98577.63;4900691;29;20048;-58
2023/10/27 01:59:00;;;;;;;7.07;6.10;;;;;;;20.56;69.46;98570.38;4885992;29;20562;-58
2023/10/27 02:01:28;;;;;;;7.47;6.10;;;;;;;20.56;69.29;98558.81;4891134;29;20514;-58
2023/10/27 02:03:55;;;;;;;7.70;6.05;;;;;;;20.56;69.48;98573.06;4883541;29;20060;-58
2023/10/27 02:06:24;;;;;;;6.65;5.95;;;;;;;20.55;69.31;98584.84;4899178;29;20061;-58
2023/10/27 02:08:52;;;;;;;7.05;5.97;;;;;;;20.55;69.17;98582.16;4900778;29;20052;-58
2023/10/27 02:11:20;;;;;;;6.50;5.80;;;;;;;20.55;69.07;98571.41;4883061;29;20397;-59
2023/10/27 02:13:49;;;;;;;8.45;6.32;;;;;;;20.55;69.06;98573.28;4900071;29;20061;-64
2023/10/27 02:16:16;;;;;;;8.10;6.18;;;;;;;20.56;69.11;98553.44;4883794;29;20067;-65
2023/10/27 02:18:43;;;;;;;7.50;6.68;;;;;;;20.56;68.97;98556.13;4900477;29;20048;-65
2023/10/27 02:21:11;;;;;;;7.78;5.80;;;;;;;20.55;68.86;98547.22;4899126;29;20053;-65
2023/10/27 02:23:38;;;;;;;7.05;5.68;;;;;;;20.55;68.97;98509.59;4898494;29;20056;-59
2023/10/27 02:26:06;;;;;;;7.15;5.95;;;;;;;20.56;68.82;98534.59;4882851;29;20057;-58
2023/10/27 02:28:33;;;;;;;7.18;5.97;;;;;;;20.56;68.95;98542.66;4900411;29;20048;-58
2023/10/27 02:31:00;;;;;;;6.57;5.65;;;;;;;20.55;68.94;98549.91;4899887;29;20403;-59
2023/10/27 02:33:28;;;;;;;6.88;5.63;;;;;;;20.55;69.12;98544.53;4900198;29;20491;-65
2023/10/27 02:35:55;;;;;;;8.68;6.00;;;;;;;20.56;69.07;98540.81;4899725;29;20052;-65
2023/10/27 02:38:22;;;;;;;6.90;5.40;;;;;;;20.56;69.05;98550.75;4882766;29;20067;-65
2023/10/27 02:40:50;;;;;;;7.38;6.05;;;;;;;20.55;69.03;98543.72;4900502;29;20060;-65
2023/10/27 02:43:17;;;;;;;6.15;5.55;;;;;;;20.55;68.95;98543.72;4900320;29;20048;-59
2023/10/27 02:45:44;;;;;;;6.38;5.72;;;;;;;20.55;68.97;98538.34;4867682;29;20146;-59
2023/10/27 02:48:12;;;;;;;7.07;5.65;;;;;;;20.56;68.96;98553.44;4899765;29;20048;-58
2023/10/27 02:50:39;;;;;;;6.28;5.45;;;;;;;20.55;68.93;98535.63;4900095;29;20163;-59
2023/10/27 02:53:07;;;;;;;6.10;4.75;;;;;;;20.56;69.07;98529.22;4899664;29;20050;-64
2023/10/27 02:55:34;;;;;;;6.70;5.35;;;;;;;20.55;68.93;98511.44;4897941;29;20143;-65
2023/10/27 02:58:03;;;;;;;6.03;5.43;;;;;;;20.54;68.97;98485.56;4899128;29;20057;-65
2023/10/27 03:00:30;;;;;;;6.15;5.40;;;;;;;20.55;68.76;98485.41;4882106;29;20060;-65
2023/10/27 03:02:57;;;;;;;5.95;5.20;;;;;;;20.54;68.76;98473.00;4899496;29;20517;-65
2023/10/27 03:05:25;;;;;;;7.05;5.05;;;;;;;20.54;68.60;98461.38;4897769;29;20052;-65
2023/10/27 03:07:52;;;;;;;6.20;5.40;;;;;;;20.54;68.77;98462.25;4882226;29;20525;-65
2023/10/27 03:10:20;;;;;;;6.03;4.80;;;;;;;20.55;68.56;98481.88;4881986;29;20060;-65
2023/10/27 03:12:47;;;;;;;5.30;4.60;;;;;;;20.54;68.59;98473.00;4899193;29;20051;-65
2023/10/27 03:15:14;;;;;;;5.93;5.13;;;;;;;20.54;68.39;98464.94;4898921;29;20037;-59
2023/10/27 03:17:42;;;;;;;5.88;5.00;;;;;;;20.53;68.54;98484.75;4899291;29;20068;-58
2023/10/27 03:20:10;;;;;;;5.97;4.95;;;;;;;20.54;68.48;98478.38;4882111;29;20521;-58
2023/10/27 03:22:37;;;;;;;7.03;4.97;;;;;;;20.54;68.36;98470.31;4899442;29;20059;-58
2023/10/27 03:25:05;;;;;;;5.00;4.45;;;;;;;20.54;68.39;98478.38;4897341;29;20083;-58
2023/10/27 03:27:32;;;;;;;5.72;5.15;;;;;;;20.54;68.40;98478.38;4899054;29;20048;-58
2023/10/27 03:29:59;;;;;;;6.53;4.97;;;;;;;20.53;68.39;98474.00;4898909;29;20106;-59
2023/10/27 03:32:28;;;;;;;5.13;4.43;;;;;;;20.54;68.39;98474.81;4897217;29;20067;-59
2023/10/27 03:34:55;;;;;;;5.45;4.95;;;;;;;20.55;68.38;98479.19;4898896;29;20068;-65
2023/10/27 03:37:26;;;;;;;5.03;4.43;;;;;;;20.54;68.23;98470.31;4899088;29;20060;-65
2023/10/27 03:39:53;;;;;;;5.88;4.90;;;;;;;20.55;68.31;98457.69;4882254;29;20040;-65
2023/10/27 03:42:21;;;;;;;7.68;5.45;;;;;;;20.54;68.20;98475.69;4881349;29;20057;-65
2023/10/27 03:44:48;;;;;;;5.35;4.70;;;;;;;20.54;68.36;98483.75;4898163;29;20068;-65
2023/10/27 03:47:15;;;;;;;5.93;4.85;;;;;;;20.54;68.28;98516.00;4881713;29;20060;-63
2023/10/27 03:49:43;;;;;;;5.18;4.47;;;;;;;20.54;68.10;98489.13;4898819;29;20041;-63
2023/10/27 03:52:10;;;;;;;5.28;4.45;;;;;;;20.54;68.07;98501.69;4898921;29;20044;-63
2023/10/27 03:54:38;;;;;;;5.88;4.90;;;;;;;20.54;68.19;98513.31;4898958;29;20044;-57
2023/10/27 03:57:06;;;;;;;6.15;4.40;;;;;;;20.55;68.16;98523.03;4899053;29;20048;-57
2023/10/27 03:59:33;;;;;;;5.10;4.15;;;;;;;20.55;68.27;98532.97;4898568;29;20052;-58
2023/10/27 04:02:01;;;;;;;5.15;4.60;;;;;;;20.55;68.05;98571.41;4896882;29;20108;-57
2023/10/27 04:04:28;;;;;;;5.53;4.53;;;;;;;20.54;68.05;98564.38;4898399;29;20072;-58
2023/10/27 04:06:56;;;;;;;4.70;4.20;;;;;;;20.54;68.08;98569.75;4897785;29;20040;-57
2023/10/27 04:09:24;;;;;;;4.95;4.35;;;;;;;20.55;68.05;98574.09;4898263;29;20055;-58
2023/10/27 04:11:51;;;;;;;7.07;5.60;;;;;;;20.56;67.87;98588.38;4898529;29;20491;-58
2023/10/27 04:14:18;;;;;;;5.25;4.22;;;;;;;20.56;67.91;98599.13;4898279;29;20083;-65
2023/10/27 04:16:46;;;;;;;5.97;4.28;;;;;;;20.55;67.86;98595.59;4898076;29;20407;-58
2023/10/27 04:19:14;;;;;;;4.85;4.32;;;;;;;20.55;67.88;98590.22;4898523;29;20057;-58
2023/10/27 04:21:43;;;;;;;5.97;4.72;;;;;;;20.56;67.85;98589.19;4898708;29;20495;-58
2023/10/27 04:24:10;;;;;;;4.90;4.00;;;;;;;20.55;67.83;98592.09;4898367;29;20067;-58
2023/10/27 04:26:38;;;;;;;5.10;4.03;;;;;;;20.56;67.84;98609.88;4898696;29;20052;-58
2023/10/27 04:29:06;;;;;;;5.65;4.78;;;;;;;20.55;67.72;98589.41;4898100;29;20049;-58
2023/10/27 04:31:33;;;;;;;5.28;4.47;;;;;;;20.56;67.93;98593.75;4898198;29;20055;-64
2023/10/27 04:34:01;;;;;;;5.05;3.97;;;;;;;20.56;67.70;98599.13;4898125;29;20057;-58
2023/10/27 04:36:29;;;;;;;4.93;4.07;;;;;;;20.55;67.64;98587.53;4898051;29;20514;-58
2023/10/27 04:38:56;;;;;;;4.95;3.95;;;;;;;20.56;67.78;98577.63;4897449;29;20056;-58
2023/10/27 04:41:25;;;;;;;5.47;4.28;;;;;;;20.54;67.66;98588.56;4898085;29;20052;-58
2023/10/27 04:43:52;;;;;;;5.50;4.55;;;;;;;20.55;67.59;98606.34;4897655;29;20057;-58
2023/10/27 04:46:19;;;;;;;5.03;4.15;;;;;;;20.56;67.60;98613.38;4898462;29;20483;-58
2023/10/27 04:48:47;;;;;;;5.65;4.25;;;;;;;20.56;67.59;98609.88;4898117;29;20048;-58
2023/10/27 04:51:14;;;;;;;5.22;4.25;;;;;;;20.55;67.70;98605.53;4898259;29;20049;-59
2023/10/27 04:53:42;;;;;;;4.70;3.90;;;;;;;20.56;67.70;98605.31;4898131;29;20060;-59
2023/10/27 04:56:09;;;;;;;5.38;4.70;;;;;;;20.56;67.49;98617.94;4897910;29;20052;-59
2023/10/27 04:58:38;;;;;;;5.57;4.47;;;;;;;20.56;67.68;98609.88;4880601;29;20053;-59
2023/10/27 05:01:06;;;;;;;5.97;4.82;;;;;;;20.56;67.51;98626.81;4897790;29;20435;-59
2023/10/27 05:03:33;;;;;;;5.85;4.75;;;;;;;20.57;67.48;98638.41;4897815;29;20063;-59
2023/10/27 05:06:10;;;;;;;6.88;4.65;;;;;;;20.58;67.54;98640.06;4897827;29;20513;-59
2023/10/27 05:08:37;;;;;;;5.18;4.32;;;;;;;20.56;67.54;98640.28;4895451;29;20052;-59
2023/10/27 05:11:05;;;;;;;6.00;4.65;;;;;;;20.56;67.48;98647.50;4897399;29;20149;-59
2023/10/27 05:13:32;;;;;;;6.13;4.60;;;;;;;20.57;67.54;98660.75;4897939;29;20055;-57
2023/10/27 05:16:00;;;;;;;5.72;4.43;;;;;;;20.56;67.36;98669.00;4897521;29;20483;-57
2023/10/27 05:18:27;;;;;;;6.53;4.75;;;;;;;20.56;67.50;98650.19;4899412;29;20056;-57
2023/10/27 05:20:55;;;;;;;6.53;5.10;;;;;;;20.57;67.48;98646.47;4884943;29;20052;-57
2023/10/27 05:23:23;;;;;;;6.38;5.25;;;;;;;20.56;67.39;98658.25;4901352;29;20052;-56
2023/10/27 05:25:52;;;;;;;5.07;4.53;;;;;;;20.55;67.37;98662.81;4901443;29;20052;-56
2023/10/27 05:28:20;;;;;;;7.63;5.18;;;;;;;20.55;67.36;98662.81;4901410;29;20132;-57
2023/10/27 05:30:50;;;;;;;6.50;5.55;;;;;;;20.55;67.51;98657.44;4901221;29;20055;-57
2023/10/27 05:33:17;;;;;;;6.88;5.80;;;;;;;20.56;67.48;98656.41;4901470;29;20044;-57
2023/10/27 05:35:45;;;;;;;6.35;5.20;;;;;;;20.56;67.35;98653.72;4900323;29;20056;-57
2023/10/27 05:38:12;;;;;;;5.88;4.78;;;;;;;20.57;67.39;98666.13;4901229;29;20048;-57
2023/10/27 05:40:39;;;;;;;6.75;4.80;;;;;;;20.56;67.40;98664.47;4901109;29;20052;-57
2023/10/27 05:43:07;;;;;;;7.05;5.15;;;;;;;20.56;67.39;98674.38;4901363;29;20049;-61
2023/10/27 05:45:35;;;;;;;6.47;5.28;;;;;;;20.56;67.38;98664.47;4900991;29;20114;-57
2023/10/27 05:48:02;;;;;;;6.40;5.75;;;;;;;20.56;67.38;98663.63;4901019;29;20538;-57
2023/10/27 05:50:30;;;;;;;5.15;4.60;;;;;;;20.56;67.30;98683.28;4901034;29;20506;-57
2023/10/27 05:52:57;;;;;;;5.88;5.03;;;;;;;20.56;67.31;98685.97;4900130;29;20063;-62
2023/10/27 05:55:25;;;;;;;6.43;5.43;;;;;;;20.57;67.36;98700.22;4901203;29;20055;-63
2023/10/27 05:57:53;;;;;;;6.10;4.97;;;;;;;20.56;67.32;98707.47;4900641;29;20052;-63
2023/10/27 06:00:21;;;;;;;6.78;5.75;;;;;;;20.57;67.27;98721.75;4900723;29;20056;-63
2023/10/27 06:02:52;;;;;;;7.63;5.95;;;;;;;20.56;67.29;98703.97;4900573;29;20411;-64
2023/10/27 06:05:23;;;;;;;7.10;5.65;;;;;;;20.56;67.17;98718.22;4901231;29;20059;-63
2023/10/27 06:07:50;;;;;;;6.00;5.07;;;;;;;20.56;67.26;98715.53;4883134;29;20056;-64
2023/10/27 06:10:18;;;;;;;8.95;5.57;;;;;;;20.56;67.25;98704.78;4900715;29;20048;-64
2023/10/27 06:12:46;;;;;;;7.20;5.63;;;;;;;20.56;67.20;98720.91;4900790;29;20048;-64
2023/10/27 06:15:13;;;;;;;6.85;6.05;;;;;;;20.57;67.23;98735.19;4900763;29;20052;-63
2023/10/27 06:17:41;;;;;;;6.40;5.63;;;;;;;20.56;67.12;98730.84;4900405;29;20045;-63
2023/10/27 06:20:08;;;;;;;6.80;5.63;;;;;;;20.57;67.14;98743.25;4900260;29;20048;-63
2023/10/27 06:22:45;;;;;;;8.35;5.55;;;;;;;20.57;67.26;98744.06;4900425;29;20056;-63
2023/10/27 06:25:13;;;;;;;7.88;5.97;;;;;;;20.57;67.08;98751.31;4896998;29;20053;-63
2023/10/27 06:27:40;;;;;;;7.22;5.13;;;;;;;20.58;67.15;98761.03;4900577;29;20052;-63
2023/10/27 06:30:08;;;;;;;7.32;5.70;;;;;;;20.57;67.18;98760.22;4892213;29;20422;-63
2023/10/27 06:32:36;;;;;;;6.53;5.55;;;;;;;20.57;67.18;98760.22;4900389;29;20052;-65
2023/10/27 06:35:03;;;;;;;7.20;5.75;;;;;;;20.58;67.15;98783.41;4897075;29;20057;-58
2023/10/27 06:37:31;;;;;;;6.85;5.45;;;;;;;20.58;67.11;98791.47;4900227;29;20067;-56
2023/10/27 06:39:58;;;;;;;7.25;5.85;;;;;;;20.58;67.12;98782.53;4892929;29;20059;-57
2023/10/27 06:42:26;;;;;;;5.30;4.72;;;;;;;20.59;67.13;98790.44;4900183;29;20390;-57
2023/10/27 06:44:54;;;;;;;6.82;5.38;;;;;;;20.60;67.13;98791.25;4899312;29;20052;-64
2023/10/27 06:47:21;;;;;;;6.25;5.28;;;;;;;20.58;67.07;98802.22;4899726;29;20045;-64
2023/10/27 06:49:50;;;;;;;7.55;4.97;;;;;;;20.59;66.94;98803.88;4892873;29;20118;-64
2023/10/27 06:52:17;;;;;;;6.88;5.75;;;;;;;20.59;67.05;98811.94;4900067;29;20053;-64
2023/10/27 06:54:46;;;;;;;7.18;5.43;;;;;;;20.59;66.94;98821.88;4899773;29;20055;-57
2023/10/27 06:57:13;;;;;;;7.95;5.47;;;;;;;20.59;66.95;98829.94;4899887;29;20052;-57
2023/10/27 06:59:40;;;;;;;5.90;4.53;;;;;;;20.58;67.01;98830.94;4899419;29;20060;-57
2023/10/27 07:02:08;;;;;;;7.32;4.95;;;;;;;20.58;67.07;98831.78;4899919;29;20055;-58
2023/10/27 07:04:35;;;;;;;7.60;4.80;;;;;;;20.59;66.94;98819.19;4899756;29;20063;-64
2023/10/27 07:07:05;;;;;;;6.45;4.80;;;;;;;20.59;66.93;98820.00;4899824;29;20045;-64
2023/10/27 07:09:47;;;;;;;5.93;4.95;;;;;;;20.59;66.97;98833.44;4899522;29;20383;-65
2023/10/27 07:12:15;;;;;;;7.20;5.00;;;;;;;20.58;66.88;98829.09;4898997;29;20052;-64
2023/10/27 07:14:44;;;;;;;7.55;6.05;;;;;;;20.58;66.80;98833.63;4899059;29;20399;-65
2023/10/27 07:17:12;;;;;;;7.20;6.15;;;;;;;20.56;66.57;98841.06;4899406;29;20127;-65
2023/10/27 07:19:39;;;;;;;8.00;6.40;;;;;;;20.55;66.39;98834.03;4896775;29;20051;-65
2023/10/27 07:22:09;;;;;;;8.93;6.07;;;;;;;20.54;66.44;98835.88;4899244;29;20053;-65
2023/10/27 07:24:36;;;;;;;9.32;6.45;;;;;;;20.52;66.17;98834.38;4898679;29;20056;-65
2023/10/27 07:27:03;;;;;;;9.02;6.88;;;;;;;20.48;66.05;98829.38;4898973;29;20052;-65
2023/10/27 07:29:32;;;;;;;7.10;6.38;;;;;;;20.46;65.85;98833.25;4898201;29;20060;-65
2023/10/27 07:31:59;;;;;;;6.88;5.65;;;;;;;20.46;65.84;98839.47;4898846;29;20044;-65
2023/10/27 07:34:26;;;;;;;8.25;5.68;;;;;;;20.45;66.00;98848.53;4898575;29;20057;-65
2023/10/27 07:36:54;;;;;;;7.18;5.57;;;;;;;20.46;66.14;98857.44;4898918;29;20051;-65
2023/10/27 07:39:22;;;;;;;6.65;5.55;;;;;;;20.45;65.99;98856.59;4898886;29;20048;-65
2023/10/27 07:41:51;;;;;;;7.88;5.75;;;;;;;20.46;65.98;98863.66;4898872;29;20049;-65
2023/10/27 07:44:18;;;;;;;7.22;5.35;;;;;;;20.47;65.81;98864.50;4898815;29;20503;-65
2023/10/27 07:46:46;;;;;;;8.27;6.50;;;;;;;20.46;65.73;98874.41;4897075;29;20074;-65
2023/10/27 07:49:14;;;;;;;7.82;5.97;;;;;;;20.46;65.77;98887.84;4898402;29;20409;-65
2023/10/27 07:51:42;;;;;;;8.10;6.10;;;;;;;20.46;65.79;98879.78;4898432;29;20056;-65
2023/10/27 07:54:09;;;;;;;7.43;5.78;;;;;;;20.48;65.71;98885.81;4895745;29;20407;-62
2023/10/27 07:56:37;;;;;;;9.63;5.38;;;;;;;20.50;65.79;98880.28;4898378;29;20052;-63
2023/10/27 07:59:04;;;;;;;7.38;5.60;;;;;;;20.50;65.74;98891.03;4898516;29;20050;-62
2023/10/27 08:01:32;;;;;;;7.53;5.93;;;;;;;20.51;65.88;98895.38;4898146;29;20056;-63
2023/10/27 08:03:59;;;;;;;5.47;4.88;;;;;;;20.53;65.85;98909.47;4894430;29;20151;-63
2023/10/27 08:06:26;;;;;;;7.07;5.00;;;;;;;20.55;65.76;98915.50;4898110;29;20514;-63
2023/10/27 08:08:54;;;;;;;6.38;4.93;;;;;;;20.57;65.81;98915.28;4898141;29;20044;-64
2023/10/27 08:11:21;;;;;;;6.50;5.15;;;;;;;20.58;65.65;98925.03;4898212;29;20052;-63
2023/10/27 08:13:49;;;;;;;7.65;5.35;;;;;;;20.61;65.75;98930.03;4894678;29;20052;-65
2023/10/27 08:16:16;;;;;;;10.07;5.00;;;;;;;20.62;65.80;98927.19;4897994;29;20049;-60
2023/10/27 08:18:46;;;;;;;8.93;5.70;;;;;;;20.65;65.70;98934.03;4897940;29;20055;-60
2023/10/27 08:21:13;;;;;;;6.43;5.13;;;;;;;20.68;65.50;98936.34;4894859;29;20053;-60
2023/10/27 08:23:41;;;;;;;9.38;5.05;;;;;;;20.71;65.41;98944.88;4897973;29;20055;-56
2023/10/27 08:26:09;;;;;;;7.43;4.90;;;;;;;20.76;65.25;98952.38;4897781;29;20060;-50
2023/10/27 08:28:36;;;;;;;7.07;4.40;;;;;;;20.81;65.00;98954.50;4897863;29;20040;-50
2023/10/27 08:31:04;;;;;;;6.07;4.53;;;;;;;20.85;64.92;98947.72;4894391;29;20414;-55
2023/10/27 08:33:31;;;;;;;7.15;4.43;;;;;;;20.88;64.63;98947.34;4897716;29;20055;-64
2023/10/27 08:36:06;;;;;;;7.05;3.70;;;;;;;20.90;64.28;98953.38;4897858;29;20055;-64
2023/10/27 08:38:33;;;;;;;6.30;4.28;;;;;;;20.90;64.43;98954.22;4897623;29;20471;-62
2023/10/27 08:41:02;;;;;;;8.70;4.82;;;;;;;20.89;64.67;98960.59;4897648;29;20411;-62
2023/10/27 08:43:29;;;;;;;6.97;4.30;;;;;;;20.89;64.70;98962.47;4897883;29;20052;-59
2023/10/27 08:45:57;;;;;;;7.13;4.60;;;;;;;20.87;64.64;98970.75;4898180;29;20399;-59
2023/10/27 08:48:24;;;;;;;6.38;4.25;;;;;;;20.86;64.55;98962.84;4897525;29;20055;-57
2023/10/27 08:50:59;;;;;;;5.57;3.92;;;;;;;20.86;64.54;98974.44;4898169;29;20426;-61
2023/10/27 08:53:26;;;;;;;5.78;4.03;;;;;;;20.87;64.51;98980.66;4902825;29;20061;-59
2023/10/27 08:55:56;;;;;;;5.07;4.10;;;;;;;20.87;64.56;98983.34;4903888;29;20488;-58
2023/10/27 08:58:24;;;;;;;4.95;3.85;;;;;;;20.86;64.41;98982.50;4903815;29;20043;-59
2023/10/27 09:00:51;;;;;;;5.32;3.88;;;;;;;20.87;64.46;98977.97;4904043;29;20407;-58
2023/10/27 09:03:18;;;;;;;4.75;3.85;;;;;;;20.87;64.50;98984.19;4904033;29;20040;-59
2023/10/27 09:05:46;;;;;;;5.63;4.18;;;;;;;20.87;64.51;98991.44;4904436;29;20048;-58
2023/10/27 09:08:13;;;;;;;6.38;3.95;;;;;;;20.87;64.44;98997.63;4903743;29;20041;-58
2023/10/27 09:10:40;;;;;;;4.88;3.70;;;;;;;20.88;64.37;98991.22;4903570;29;20053;-58
2023/10/27 09:13:10;;;;;;;5.72;4.22;;;;;;;20.88;64.35;99001.97;4903625;29;20052;-61
2023/10/27 09:15:45;;;;;;;6.50;5.05;;;;;;;20.86;64.35;99006.69;4903742;29;20048;-62
2023/10/27 09:18:13;;;;;;;6.18;5.32;;;;;;;20.86;64.12;99000.50;4887074;29;20045;-62
2023/10/27 09:20:52;;;;;;;5.30;4.47;;;;;;;20.85;64.02;99010.41;4899568;29;20075;-61
2023/10/27 09:23:20;;;;;;;6.97;4.90;;;;;;;20.86;64.04;99003.19;4897278;29;20439;-57
2023/10/27 09:25:47;;;;;;;5.35;4.47;;;;;;;20.85;64.03;99006.91;4903440;29;20491;-57
2023/10/27 09:28:28;;;;;;;7.28;4.53;;;;;;;20.85;63.95;99012.28;4903589;29;20049;-57
2023/10/27 09:30:55;;;;;;;6.57;4.70;;;;;;;20.85;63.93;99004.22;4903941;29;20051;-57
2023/10/27 09:33:26;;;;;;;5.75;4.47;;;;;;;20.85;63.94;99009.59;4903568;29;20525;-57
2023/10/27 09:35:54;;;;;;;6.05;4.28;;;;;;;20.84;63.71;99005.25;4886444;29;20055;-57
2023/10/27 09:38:22;;;;;;;8.43;4.53;;;;;;;20.86;63.75;99016.63;4903370;29;20040;-57
2023/10/27 09:40:50;;;;;;;5.50;4.05;;;;;;;20.87;63.89;99024.53;4903518;29;20048;-57
2023/10/27 09:43:19;;;;;;;7.05;4.10;;;;;;;20.86;63.88;99011.25;4903610;29;20049;-60
2023/10/27 09:45:54;;;;;;;5.10;3.70;;;;;;;20.86;63.74;99020.16;4903773;29;20048;-58
2023/10/27 09:48:30;;;;;;;4.28;3.25;;;;;;;20.88;63.69;99022.66;4900426;29;20052;-58
2023/10/27 09:51:10;;;;;;;6.25;4.28;;;;;;;20.87;63.74;99037.16;4903663;29;20045;-58
2023/10/27 09:53:38;;;;;;;5.72;4.20;;;;;;;20.87;63.60;99031.78;4903403;29;20060;-57
2023/10/27 09:56:07;;;;;;;5.78;3.95;;;;;;;20.89;63.74;99025.16;4899497;29;20052;-55
2023/10/27 09:58:35;;;;;;;6.32;4.22;;;;;;;20.90;63.69;99026.00;4902676;29;20048;-56
2023/10/27 10:01:03;;;;;;;5.43;4.05;;;;;;;20.91;63.48;99025.81;4903656;29;20407;-57
2023/10/27 10:03:32;;;;;;;6.60;4.80;;;;;;;20.92;63.48;99035.56;4882107;29;20048;-60
2023/10/27 10:06:10;;;;;;;6.97;4.28;;;;;;;20.93;63.44;99042.59;4900280;29;20055;-58
2023/10/27 10:08:38;;;;;;;7.20;4.57;;;;;;;20.97;63.31;99026.94;4894200;29;20052;-60
2023/10/27 10:11:18;;;;;;;7.82;4.45;;;;;;;21.00;63.23;99037.31;4900144;29;20056;-60
2023/10/27 10:13:46;;;;;;;6.15;4.38;;;;;;;20.99;63.27;99041.03;4900015;29;20521;-58
2023/10/27 10:16:14;;;;;;;6.25;4.40;;;;;;;21.00;63.26;99042.69;4899880;29;20063;-57
2023/10/27 10:18:48;;;;;;;5.00;4.10;;;;;;;20.98;63.33;99042.91;4900123;29;20491;-58
2023/10/27 10:21:37;;;;;;;6.18;4.18;;;;;;;20.97;63.31;99043.06;4897214;29;20518;-57
2023/10/27 10:24:08;;;;;;;4.75;3.38;;;;;;;20.96;63.11;99053.00;4900099;29;20052;-58
2023/10/27 10:27:04;;;;;;;5.35;3.67;;;;;;;20.95;63.18;99047.81;4900196;29;20064;-58
2023/10/27 10:29:33;;;;;;;5.18;3.55;;;;;;;20.93;63.56;99056.06;4895812;29;20517;-58
2023/10/27 10:32:29;;;;;;;4.72;3.55;;;;;;;20.93;63.23;99053.38;4893688;29;20053;-57
2023/10/27 10:35:22;;;;;;;5.90;3.33;;;;;;;20.92;63.15;99049.00;4890851;29;20057;-58
2023/10/27 10:37:54;;;;;;;4.85;3.42;;;;;;;20.93;63.16;99060.59;4898237;29;20056;-58
2023/10/27 10:40:24;;;;;;;5.45;3.08;;;;;;;20.91;63.25;99058.09;4900174;29;20419;-58
2023/10/27 10:43:17;;;;;;;5.45;3.63;;;;;;;20.91;63.30;99044.66;4896659;29;20048;-59
2023/10/27 10:45:50;;;;;;;5.32;3.28;;;;;;;20.92;63.26;99056.25;4899715;29;20044;-58
2023/10/27 10:48:18;;;;;;;;;;;;;;;20.90;63.31;99040.31;4900094;29;20071;-58
2023/10/27 10:50:49;;;;;;;4.28;2.53;;;;;;;20.91;63.16;99043.81;4899642;29;19927;-58
2023/10/27 10:53:22;;;;;;;4.85;3.28;;;;;;;20.91;63.21;99043.81;4899270;29;20064;-58
2023/10/27 10:55:50;;;;;;;5.93;3.75;;;;;;;20.91;63.10;99033.06;4899378;29;20075;-57
2023/10/27 10:58:28;;;;;;;4.85;3.33;;;;;;;20.91;63.25;99038.44;4899099;29;20052;-57
2023/10/27 11:00:58;;;;;;;4.07;2.97;;;;;;;20.90;63.15;99039.44;4899335;29;20052;-57
2023/10/27 11:03:28;;;;;;;5.45;3.90;;;;;;;20.92;63.24;99043.63;4899073;29;20068;-58
2023/10/27 11:06:00;;;;;;;4.85;3.53;;;;;;;20.91;63.16;99039.28;4899534;29;20049;-57
2023/10/27 11:08:30;;;;;;;5.78;3.47;;;;;;;20.90;63.21;99043.00;4898833;29;20048;-58
2023/10/27 11:11:09;;;;;;;5.53;3.28;;;;;;;20.91;63.14;99038.44;4898696;29;20056;-57
2023/10/27 11:13:41;;;;;;;5.00;3.35;;;;;;;20.92;63.14;99026.66;4894356;29;20052;-58
2023/10/27 11:16:14;;;;;;;5.05;3.40;;;;;;;20.92;63.20;99032.03;4898813;29;20053;-58
2023/10/27 11:18:42;;;;;;;4.90;3.45;;;;;;;20.91;63.16;99039.28;4899133;29;20052;-58
2023/10/27 11:21:21;;;;;;;4.50;2.55;;;;;;;20.92;63.24;99040.09;4898941;29;20423;-58
2023/10/27 11:23:50;;;;;;;4.57;3.20;;;;;;;20.92;63.18;99034.72;4898933;29;20049;-58
2023/10/27 11:26:23;;;;;;;4.40;2.53;;;;;;;20.92;63.13;99051.69;4879470;29;20073;-59
2023/10/27 11:28:54;;;;;;;4.50;3.35;;;;;;;20.92;63.23;99046.31;4880231;29;20415;-58
2023/10/27 11:31:21;;;;;;;5.00;3.42;;;;;;;20.92;63.20;99050.88;4880344;29;20060;-58
2023/10/27 11:33:55;;;;;;;5.88;3.60;;;;;;;20.93;63.23;99052.53;4879378;29;20052;-59
2023/10/27 11:36:24;;;;;;;6.15;3.13;;;;;;;20.93;63.27;99045.28;4874693;29;20049;-59
2023/10/27 11:38:51;;;;;;;4.38;3.08;;;;;;;20.93;63.28;99047.97;4879906;29;20049;-59
2023/10/27 11:41:19;;;;;;;5.18;3.90;;;;;;;20.93;63.19;99049.84;4879734;29;20491;-59